createdAt,value
2023-05-14T00:01:56.773Z,5.30
2023-05-14T00:04:24.234Z,6.05
2023-05-14T00:06:51.957Z,5.70
2023-05-14T00:09:19.639Z,6.13
2023-05-14T00:11:47.114Z,5.60
2023-05-14T00:14:14.839Z,5.65
2023-05-14T00:16:42.017Z,5.70
2023-05-14T00:19:09.294Z,6.28
2023-05-14T00:21:36.136Z,5.82
2023-05-14T00:24:03.110Z,5.80
2023-05-14T00:26:30.418Z,5.70
2023-05-14T00:28:58.076Z,5.75
2023-05-14T00:31:25.646Z,6.70
2023-05-14T00:33:53.743Z,6.28
2023-05-14T00:36:21.278Z,6.35
2023-05-14T00:38:48.139Z,6.60
2023-05-14T00:41:15.516Z,6.00
2023-05-14T00:43:42.574Z,6.03
2023-05-14T00:46:09.973Z,5.90
2023-05-14T00:48:37.098Z,6.15
2023-05-14T00:51:04.844Z,6.25
2023-05-14T00:53:33.564Z,5.75
2023-05-14T00:56:01.310Z,5.95
2023-05-14T00:58:28.399Z,6.50
2023-05-14T01:00:55.470Z,6.93
2023-05-14T01:03:22.574Z,6.88
2023-05-14T01:06:14.739Z,6.15
2023-05-14T01:09:17.093Z,6.43
2023-05-14T01:11:50.914Z,5.70
2023-05-14T01:14:30.593Z,6.00
2023-05-14T01:17:00.108Z,6.70
2023-05-14T01:19:35.832Z,6.80
2023-05-14T01:22:03.026Z,6.90
2023-05-14T01:24:30.264Z,6.65
2023-05-14T01:27:26.231Z,7.70
2023-05-14T01:30:35.477Z,7.05
2023-05-14T01:33:08.200Z,6.80
2023-05-14T01:35:35.793Z,6.35
2023-05-14T01:38:07.374Z,6.57
2023-05-14T01:40:36.539Z,7.38
2023-05-14T01:43:05.383Z,6.20
2023-05-14T01:45:37.008Z,6.35
2023-05-14T01:48:06.101Z,6.60
2023-05-14T01:50:33.711Z,6.60
2023-05-14T01:53:01.311Z,7.07
2023-05-14T01:55:28.883Z,7.32
2023-05-14T01:57:57.542Z,6.60
2023-05-14T02:00:27.877Z,6.63
2023-05-14T02:02:55.314Z,6.75
2023-05-14T02:05:23.803Z,6.60
2023-05-14T02:07:51.886Z,6.45
2023-05-14T02:10:19.238Z,6.90
2023-05-14T02:12:46.562Z,6.82
2023-05-14T02:15:14.264Z,6.50
2023-05-14T02:17:40.934Z,7.68
2023-05-14T02:20:08.255Z,7.03
2023-05-14T02:22:34.925Z,7.03
2023-05-14T02:25:01.804Z,7.32
2023-05-14T02:27:28.524Z,8.07
2023-05-14T02:29:56.660Z,6.97
2023-05-14T02:32:23.446Z,6.32
2023-05-14T02:34:50.516Z,7.63
2023-05-14T02:37:17.287Z,6.97
2023-05-14T02:39:43.858Z,6.82
2023-05-14T02:42:10.623Z,7.80
2023-05-14T02:44:37.414Z,6.95
2023-05-14T02:47:04.385Z,7.10
2023-05-14T02:49:31.008Z,6.30
2023-05-14T02:51:58.577Z,6.65
2023-05-14T02:54:25.742Z,6.70
2023-05-14T02:56:52.780Z,8.98
2023-05-14T02:59:20.017Z,6.68
2023-05-14T03:01:47.480Z,7.65
2023-05-14T03:04:15.147Z,7.45
2023-05-14T03:06:42.821Z,6.25
2023-05-14T03:09:10.563Z,7.15
2023-05-14T03:11:38.152Z,6.47
2023-05-14T03:14:05.391Z,7.72
2023-05-14T03:16:32.687Z,7.07
2023-05-14T03:19:00.113Z,7.10
2023-05-14T03:21:27.570Z,7.93
2023-05-14T03:23:54.470Z,8.05
2023-05-14T03:26:21.864Z,7.57
2023-05-14T03:28:50.832Z,7.03
2023-05-14T03:31:18.342Z,7.03
2023-05-14T03:33:46.361Z,7.47
2023-05-14T03:36:13.658Z,8.20
2023-05-14T03:38:41.945Z,6.35
2023-05-14T03:41:09.495Z,7.53
2023-05-14T03:43:37.361Z,8.10
2023-05-14T03:46:05.345Z,7.20
2023-05-14T03:48:32.723Z,7.28
2023-05-14T03:50:59.832Z,7.38
2023-05-14T03:53:26.956Z,7.40
2023-05-14T03:55:54.314Z,6.55
2023-05-14T03:58:21.522Z,7.53
2023-05-14T04:00:49.383Z,6.35
2023-05-14T04:03:17.964Z,7.40
2023-05-14T04:05:46.577Z,7.65
2023-05-14T04:08:13.881Z,7.43
2023-05-14T04:10:46.659Z,6.82
2023-05-14T04:13:13.709Z,7.88
2023-05-14T04:15:40.746Z,7.93
2023-05-14T04:18:07.631Z,7.60
2023-05-14T04:20:37.162Z,6.85
2023-05-14T04:23:04.686Z,7.30
2023-05-14T04:25:32.558Z,6.88
2023-05-14T04:27:59.964Z,7.95
2023-05-14T04:30:27.877Z,7.50
2023-05-14T04:32:54.600Z,7.10
2023-05-14T04:35:24.044Z,7.03
2023-05-14T04:37:51.472Z,7.15
2023-05-14T04:40:18.073Z,7.18
2023-05-14T04:42:44.997Z,7.85
2023-05-14T04:45:13.723Z,7.28
2023-05-14T04:47:40.471Z,7.45
2023-05-14T04:50:09.380Z,7.85
2023-05-14T04:52:36.052Z,8.00
2023-05-14T04:55:02.910Z,7.65
2023-05-14T04:57:29.496Z,7.65
2023-05-14T04:59:57.186Z,7.78
2023-05-14T05:02:23.816Z,7.63
2023-05-14T05:04:50.562Z,8.18
2023-05-14T05:07:17.243Z,8.05
2023-05-14T05:09:44.310Z,8.05
2023-05-14T05:12:10.906Z,7.68
2023-05-14T05:14:37.624Z,7.63
2023-05-14T05:17:04.492Z,8.13
2023-05-14T05:19:42.578Z,7.20
2023-05-14T05:22:10.712Z,7.57
2023-05-14T05:24:37.450Z,7.97
2023-05-14T05:27:05.531Z,8.18
2023-05-14T05:29:32.378Z,8.55
2023-05-14T05:31:59.445Z,8.27
2023-05-14T05:34:26.268Z,7.90
2023-05-14T05:36:52.949Z,8.57
2023-05-14T05:39:19.576Z,7.75
2023-05-14T05:41:46.371Z,8.57
2023-05-14T05:44:13.001Z,8.52
2023-05-14T05:46:39.863Z,7.40
2023-05-14T05:49:06.514Z,7.53
2023-05-14T05:51:33.363Z,7.55
2023-05-14T05:54:00.139Z,7.10
2023-05-14T05:56:26.880Z,6.88
2023-05-14T05:58:53.441Z,6.90
2023-05-14T06:01:20.144Z,7.53
2023-05-14T06:03:48.352Z,7.05
2023-05-14T06:06:15.746Z,6.80
2023-05-14T06:08:42.455Z,6.45
2023-05-14T06:11:09.216Z,6.60
2023-05-14T06:13:36.074Z,6.15
2023-05-14T06:16:02.783Z,7.15
2023-05-14T06:18:29.668Z,5.93
2023-05-14T06:20:57.308Z,6.10
2023-05-14T06:23:23.985Z,6.75
2023-05-14T06:25:51.966Z,6.80
2023-05-14T06:28:18.672Z,6.93
2023-05-14T06:30:45.341Z,6.13
2023-05-14T06:33:13.558Z,6.80
2023-05-14T06:35:40.147Z,6.22
2023-05-14T06:38:06.841Z,6.72
2023-05-14T06:40:33.502Z,5.95
2023-05-14T06:43:00.172Z,6.15
2023-05-14T06:45:26.841Z,5.95
2023-05-14T06:47:53.679Z,5.88
2023-05-14T06:50:20.458Z,6.20
2023-05-14T06:52:47.317Z,6.10
2023-05-14T06:55:13.958Z,5.38
2023-05-14T06:57:41.057Z,5.50
2023-05-14T07:00:08.654Z,5.25
2023-05-14T07:02:35.674Z,5.30
2023-05-14T07:05:03.094Z,4.93
2023-05-14T07:07:29.824Z,5.15
2023-05-14T07:09:56.432Z,5.20
2023-05-14T07:12:23.096Z,5.90
2023-05-14T07:14:50.724Z,5.53
2023-05-14T07:17:17.564Z,5.82
2023-05-14T07:19:44.425Z,5.60
2023-05-14T07:22:11.198Z,4.18
2023-05-14T07:24:37.877Z,4.88
2023-05-14T07:27:06.936Z,4.80
2023-05-14T07:29:35.615Z,4.57
2023-05-14T07:32:02.373Z,4.90
2023-05-14T07:34:29.016Z,4.57
2023-05-14T07:36:55.936Z,4.35
2023-05-14T07:39:22.668Z,3.97
2023-05-14T07:41:50.206Z,4.43
2023-05-14T07:44:17.300Z,4.45
2023-05-14T07:46:44.022Z,4.40
2023-05-14T07:49:10.703Z,3.95
2023-05-14T07:51:37.365Z,4.43
2023-05-14T07:54:04.156Z,4.40
2023-05-14T07:56:31.048Z,4.80
2023-05-14T07:58:57.874Z,5.50
2023-05-14T08:01:24.551Z,5.40
2023-05-14T08:03:51.351Z,5.35
2023-05-14T08:06:18.315Z,4.32
2023-05-14T08:08:45.018Z,3.85
2023-05-14T08:11:11.863Z,3.78
2023-05-14T08:13:38.471Z,3.67
2023-05-14T08:16:05.420Z,3.67
2023-05-14T08:18:32.182Z,4.05
2023-05-14T08:20:58.836Z,4.20
2023-05-14T08:23:26.523Z,3.97
2023-05-14T08:25:53.184Z,4.68
2023-05-14T08:28:21.006Z,4.53
2023-05-14T08:30:47.737Z,5.28
2023-05-14T08:33:15.515Z,5.00
2023-05-14T08:35:42.242Z,4.28
2023-05-14T08:38:08.934Z,4.93
2023-05-14T08:40:35.604Z,5.13
2023-05-14T08:43:03.788Z,4.63
2023-05-14T08:45:34.289Z,4.45
2023-05-14T08:48:05.216Z,4.80
2023-05-14T08:50:32.400Z,4.40
2023-05-14T08:53:00.054Z,3.53
2023-05-14T08:55:27.260Z,3.75
2023-05-14T08:57:54.204Z,3.95
2023-05-14T09:00:20.995Z,4.38
2023-05-14T09:02:48.504Z,4.28
2023-05-14T09:05:17.117Z,4.50
2023-05-14T09:07:43.931Z,4.60
2023-05-14T09:10:11.446Z,5.07
2023-05-14T09:12:38.192Z,5.07
2023-05-14T09:15:05.373Z,4.63
2023-05-14T09:17:33.643Z,4.50
2023-05-14T09:20:00.709Z,4.85
2023-05-14T09:22:31.905Z,4.47
2023-05-14T09:25:06.730Z,4.53
2023-05-14T09:27:34.555Z,4.50
2023-05-14T09:30:09.729Z,4.68
2023-05-14T09:32:39.247Z,4.40
2023-05-14T09:35:18.553Z,5.25
2023-05-14T09:37:47.476Z,4.35
2023-05-14T09:40:14.746Z,4.55
2023-05-14T09:42:41.779Z,4.45
2023-05-14T09:45:09.671Z,3.85
2023-05-14T09:47:37.470Z,4.28
2023-05-14T09:50:05.126Z,4.18
2023-05-14T09:52:32.185Z,4.97
2023-05-14T09:54:59.927Z,3.75
2023-05-14T09:57:26.938Z,3.55
2023-05-14T09:59:54.237Z,3.80
2023-05-14T10:02:37.033Z,3.90
2023-05-14T10:05:06.521Z,3.88
2023-05-14T10:07:47.943Z,3.47
2023-05-14T10:10:18.759Z,3.25
2023-05-14T10:12:52.504Z,3.85
2023-05-14T10:15:33.733Z,3.50
2023-05-14T10:18:08.178Z,3.50
2023-05-14T10:20:36.058Z,3.70
2023-05-14T10:23:02.900Z,3.25
2023-05-14T10:25:30.252Z,3.25
2023-05-14T10:27:57.800Z,2.75
2023-05-14T10:30:24.707Z,2.80
2023-05-14T10:33:09.752Z,2.58
2023-05-14T10:35:57.653Z,2.60
2023-05-14T10:38:33.483Z,2.90
2023-05-14T10:41:02.789Z,2.97
2023-05-14T10:43:31.070Z,2.50
2023-05-14T10:45:58.865Z,2.75
2023-05-14T10:48:26.042Z,2.60
2023-05-14T10:50:53.571Z,2.80
2023-05-14T10:53:21.227Z,2.60
2023-05-14T10:55:47.878Z,2.42
2023-05-14T10:58:15.634Z,2.42
2023-05-14T11:00:42.799Z,2.50
2023-05-14T11:03:10.186Z,2.33
2023-05-14T11:05:38.814Z,2.28
2023-05-14T11:08:08.220Z,2.33
2023-05-14T11:10:35.690Z,2.40
2023-05-14T11:13:02.643Z,2.28
2023-05-14T11:15:29.492Z,2.50
2023-05-14T11:17:56.180Z,2.70
2023-05-14T11:20:23.296Z,2.60
2023-05-14T11:22:51.798Z,2.50
2023-05-14T11:25:18.973Z,2.25
2023-05-14T11:27:47.589Z,2.40
2023-05-14T11:30:19.727Z,2.80
2023-05-14T11:32:48.139Z,2.72
2023-05-14T11:35:15.505Z,3.10
2023-05-14T11:37:42.662Z,3.05
2023-05-14T11:40:14.673Z,2.92
2023-05-14T11:42:41.825Z,2.35
2023-05-14T11:45:12.067Z,2.58
2023-05-14T11:47:39.094Z,2.83
2023-05-14T11:50:08.639Z,3.03
2023-05-14T11:52:44.033Z,3.00
2023-05-14T11:55:14.711Z,2.40
2023-05-14T11:57:42.670Z,2.65
2023-05-14T12:00:13.569Z,2.70
2023-05-14T12:02:40.599Z,3.00
2023-05-14T12:05:09.086Z,2.30
2023-05-14T12:07:36.180Z,2.40
2023-05-14T12:10:03.790Z,2.67
2023-05-14T12:12:36.697Z,2.22
2023-05-14T12:15:11.703Z,2.70
2023-05-14T12:17:38.562Z,2.60
2023-05-14T12:20:10.445Z,2.80
2023-05-14T12:22:37.530Z,2.92
2023-05-14T12:25:04.410Z,2.40
2023-05-14T12:27:31.327Z,2.53
2023-05-14T12:30:20.734Z,2.53
2023-05-14T12:32:51.884Z,2.55
2023-05-14T12:35:19.112Z,2.33
2023-05-14T12:37:46.035Z,2.80
2023-05-14T12:40:12.774Z,2.50
2023-05-14T12:42:39.367Z,2.63
2023-05-14T12:45:08.465Z,2.33
2023-05-14T12:47:36.501Z,2.67
2023-05-14T12:50:03.732Z,2.47
2023-05-14T12:52:37.516Z,2.92
2023-05-14T12:55:14.160Z,2.50
2023-05-14T12:57:41.485Z,2.17
2023-05-14T13:00:13.933Z,2.55
2023-05-14T13:02:42.173Z,2.20
2023-05-14T13:05:09.376Z,2.55
2023-05-14T13:07:36.130Z,2.33
2023-05-14T13:10:05.637Z,2.30
2023-05-14T13:12:32.481Z,2.35
2023-05-14T13:14:59.197Z,2.60
2023-05-14T13:17:26.019Z,2.40
2023-05-14T13:19:52.828Z,2.50
2023-05-14T13:22:19.516Z,2.80
2023-05-14T13:24:46.478Z,2.50
2023-05-14T13:27:13.119Z,2.67
2023-05-14T13:29:39.862Z,2.60
2023-05-14T13:32:06.988Z,2.63
2023-05-14T13:34:33.889Z,2.20
2023-05-14T13:37:01.284Z,2.50
2023-05-14T13:39:28.111Z,2.80
2023-05-14T13:41:56.857Z,2.20
2023-05-14T13:44:24.139Z,2.28
2023-05-14T13:46:51.158Z,2.50
2023-05-14T13:49:17.996Z,2.60
2023-05-14T13:51:44.685Z,3.00
2023-05-14T13:54:11.334Z,2.40
2023-05-14T13:56:38.222Z,3.63
2023-05-14T13:59:06.140Z,2.28
2023-05-14T14:01:32.986Z,2.20
2023-05-14T14:03:59.707Z,2.40
2023-05-14T14:06:30.053Z,2.22
2023-05-14T14:08:56.689Z,2.50
2023-05-14T14:11:23.569Z,2.60
2023-05-14T14:13:50.293Z,2.60
2023-05-14T14:16:16.969Z,2.25
2023-05-14T14:18:43.827Z,2.00
2023-05-14T14:21:10.829Z,2.72
2023-05-14T14:23:37.689Z,2.45
2023-05-14T14:26:04.446Z,2.45
2023-05-14T14:28:31.431Z,2.50
2023-05-14T14:30:58.465Z,2.30
2023-05-14T14:33:25.470Z,2.60
2023-05-14T14:35:52.980Z,2.70
2023-05-14T14:38:19.617Z,2.30
2023-05-14T14:40:46.842Z,2.40
2023-05-14T14:43:13.659Z,2.47
2023-05-14T14:45:40.309Z,2.03
2023-05-14T14:48:22.957Z,2.30
2023-05-14T14:50:52.631Z,2.20
2023-05-14T14:53:22.727Z,2.40
2023-05-14T14:55:50.808Z,2.30
2023-05-14T14:58:18.905Z,2.03
2023-05-14T15:00:45.822Z,2.50
2023-05-14T15:03:12.645Z,2.30
2023-05-14T15:05:39.415Z,2.60
2023-05-14T15:08:06.140Z,2.30
2023-05-14T15:10:32.928Z,2.30
2023-05-14T15:12:59.962Z,2.55
2023-05-14T15:15:26.693Z,2.90
2023-05-14T15:17:53.456Z,3.00
2023-05-14T15:20:20.227Z,2.78
2023-05-14T15:22:46.994Z,5.57
2023-05-14T15:25:14.092Z,2.40
2023-05-14T15:27:40.936Z,2.58
2023-05-14T15:30:08.947Z,2.30
2023-05-14T15:32:35.710Z,2.88
2023-05-14T15:35:02.423Z,2.50
2023-05-14T15:37:37.631Z,2.78
2023-05-14T15:40:06.579Z,2.50
2023-05-14T15:42:33.344Z,2.53
2023-05-14T15:45:00.706Z,2.33
2023-05-14T15:47:27.380Z,4.63
2023-05-14T15:49:54.557Z,2.53
2023-05-14T15:52:21.703Z,2.50
2023-05-14T15:54:49.310Z,3.67
2023-05-14T15:57:18.523Z,3.13
2023-05-14T15:59:47.263Z,2.90
2023-05-14T16:02:14.752Z,2.40
2023-05-14T16:04:41.481Z,3.10
2023-05-14T16:07:12.234Z,2.63
2023-05-14T16:09:39.071Z,2.88
2023-05-14T16:12:07.630Z,2.40
2023-05-14T16:14:35.661Z,2.50
2023-05-14T16:17:02.437Z,2.35
2023-05-14T16:19:29.259Z,2.38
2023-05-14T16:21:56.036Z,2.20
2023-05-14T16:24:22.772Z,2.50
2023-05-14T16:26:49.500Z,2.35
2023-05-14T16:29:17.314Z,2.50
2023-05-14T16:31:44.425Z,2.90
2023-05-14T16:34:11.159Z,2.42
2023-05-14T16:36:38.848Z,2.67
2023-05-14T16:39:08.157Z,2.63
2023-05-14T16:41:36.114Z,2.50
2023-05-14T16:44:02.877Z,2.40
2023-05-14T16:46:31.268Z,2.50
2023-05-14T16:48:58.308Z,2.30
2023-05-14T16:51:25.080Z,2.80
2023-05-14T16:53:52.136Z,3.05
2023-05-14T16:56:19.153Z,2.45
2023-05-14T16:58:45.717Z,2.92
2023-05-14T17:01:13.419Z,2.60
2023-05-14T17:03:40.799Z,2.83
2023-05-14T17:06:07.561Z,2.72
2023-05-14T17:08:36.482Z,2.70
2023-05-14T17:11:05.903Z,2.63
2023-05-14T17:13:33.374Z,3.05
2023-05-14T17:16:01.063Z,2.80
2023-05-14T17:18:28.231Z,2.45
2023-05-14T17:20:54.990Z,2.58
2023-05-14T17:23:21.568Z,2.78
2023-05-14T17:25:48.312Z,2.88
2023-05-14T17:28:15.058Z,2.85
2023-05-14T17:30:41.806Z,2.50
2023-05-14T17:33:08.558Z,2.38
2023-05-14T17:35:36.511Z,2.38
2023-05-14T17:38:03.686Z,2.47
2023-05-14T17:40:30.434Z,2.70
2023-05-14T17:42:57.105Z,2.58
2023-05-14T17:45:24.260Z,2.58
2023-05-14T17:47:51.504Z,2.70
2023-05-14T17:50:19.118Z,2.50
2023-05-14T17:52:46.222Z,3.03
2023-05-14T17:55:13.082Z,2.60
2023-05-14T17:57:39.802Z,2.90
2023-05-14T18:00:07.589Z,2.50
2023-05-14T18:02:34.293Z,2.80
2023-05-14T18:05:02.719Z,2.72
2023-05-14T18:07:30.047Z,2.58
2023-05-14T18:09:57.106Z,3.10
2023-05-14T18:12:25.604Z,2.92
2023-05-14T18:14:52.322Z,2.72
2023-05-14T18:17:19.115Z,3.00
2023-05-14T18:19:45.888Z,2.90
2023-05-14T18:22:12.932Z,3.20
2023-05-14T18:24:39.550Z,2.70
2023-05-14T18:27:06.334Z,2.58
2023-05-14T18:29:33.995Z,2.95
2023-05-14T18:32:00.749Z,2.65
2023-05-14T18:34:27.321Z,2.70
2023-05-14T18:36:54.162Z,2.40
2023-05-14T18:39:20.684Z,3.17
2023-05-14T18:41:47.235Z,2.80
2023-05-14T18:44:13.919Z,3.40
2023-05-14T18:46:40.606Z,2.80
2023-05-14T18:49:07.226Z,3.15
2023-05-14T18:51:35.145Z,3.10
2023-05-14T18:54:01.816Z,3.03
2023-05-14T18:56:28.544Z,3.50
2023-05-14T18:58:55.313Z,3.15
2023-05-14T19:01:24.458Z,3.00
2023-05-14T19:03:56.725Z,3.03
2023-05-14T19:06:24.897Z,3.20
2023-05-14T19:08:51.821Z,3.45
2023-05-14T19:11:18.428Z,2.90
2023-05-14T19:13:46.895Z,3.13
2023-05-14T19:16:14.044Z,3.50
2023-05-14T19:18:41.842Z,3.33
2023-05-14T19:21:08.546Z,3.10
2023-05-14T19:23:35.296Z,3.40
2023-05-14T19:26:01.839Z,3.80
2023-05-14T19:28:28.599Z,3.88
2023-05-14T19:30:57.197Z,3.72
2023-05-14T19:33:24.453Z,3.85
2023-05-14T19:35:51.457Z,3.50
2023-05-14T19:38:19.684Z,3.90
2023-05-14T19:40:46.272Z,4.45
2023-05-14T19:43:13.133Z,4.47
2023-05-14T19:45:39.945Z,4.22
2023-05-14T19:48:06.881Z,4.20
2023-05-14T19:50:34.292Z,3.88
2023-05-14T19:53:01.200Z,4.32
2023-05-14T19:55:27.841Z,3.83
2023-05-14T19:57:54.490Z,4.68
2023-05-14T20:00:22.434Z,4.43
2023-05-14T20:02:49.070Z,4.60
2023-05-14T20:05:16.779Z,3.88
2023-05-14T20:07:43.910Z,4.70
2023-05-14T20:10:10.952Z,4.30
2023-05-14T20:12:38.999Z,4.43
2023-05-14T20:15:06.156Z,4.22
2023-05-14T20:17:33.091Z,3.97
2023-05-14T20:19:59.835Z,4.60
2023-05-14T20:22:26.490Z,4.28
2023-05-14T20:24:53.279Z,4.10
2023-05-14T20:27:19.964Z,4.38
2023-05-14T20:29:47.039Z,4.05
2023-05-14T20:32:14.900Z,4.07
2023-05-14T20:34:41.628Z,3.95
2023-05-14T20:37:08.770Z,3.65
2023-05-14T20:39:35.479Z,3.83
2023-05-14T20:42:02.092Z,4.07
2023-05-14T20:44:28.838Z,3.88
2023-05-14T20:46:55.525Z,4.05
2023-05-14T20:49:22.163Z,4.30
2023-05-14T20:51:48.707Z,4.28
2023-05-14T20:54:15.630Z,5.15
2023-05-14T20:56:42.181Z,5.07
2023-05-14T20:59:09.161Z,5.20
2023-05-14T21:01:35.904Z,5.10
2023-05-14T21:04:02.651Z,6.30
2023-05-14T21:06:29.369Z,6.82
2023-05-14T21:08:55.893Z,6.53
2023-05-14T21:11:23.101Z,7.10
2023-05-14T21:13:49.658Z,7.75
2023-05-14T21:16:16.454Z,7.88
2023-05-14T21:18:44.032Z,8.30
2023-05-14T21:21:10.732Z,6.82
2023-05-14T21:23:37.415Z,8.05
2023-05-14T21:26:04.135Z,8.30
2023-05-14T21:28:31.603Z,8.93
2023-05-14T21:30:58.224Z,9.55
2023-05-14T21:33:25.018Z,10.02
2023-05-14T21:35:52.799Z,9.20
2023-05-14T21:38:19.729Z,8.98
2023-05-14T21:40:46.302Z,9.45
2023-05-14T21:43:13.038Z,9.32
2023-05-14T21:45:39.647Z,10.00
2023-05-14T21:48:06.951Z,9.90
2023-05-14T21:50:34.715Z,8.32
2023-05-14T21:53:01.501Z,9.35
2023-05-14T21:55:28.626Z,9.32
2023-05-14T21:57:55.650Z,9.13
2023-05-14T22:00:25.189Z,10.13
2023-05-14T22:02:55.416Z,9.23
2023-05-14T22:05:22.461Z,9.90
2023-05-14T22:07:49.468Z,9.63
2023-05-14T22:10:16.972Z,9.65
2023-05-14T22:12:44.806Z,10.13
2023-05-14T22:15:12.479Z,10.07
2023-05-14T22:17:39.456Z,10.85
2023-05-14T22:20:07.659Z,10.40
2023-05-14T22:22:34.562Z,11.05
2023-05-14T22:25:01.533Z,11.40
2023-05-14T22:27:28.307Z,10.88
2023-05-14T22:29:57.696Z,10.95
2023-05-14T22:32:24.635Z,11.20
2023-05-14T22:34:51.439Z,11.52
2023-05-14T22:37:18.136Z,11.93
2023-05-14T22:39:44.871Z,12.52
2023-05-14T22:42:11.515Z,12.18
2023-05-14T22:44:38.138Z,12.13
2023-05-14T22:47:05.289Z,12.68
2023-05-14T22:49:32.057Z,12.45
2023-05-14T22:51:58.881Z,11.80
2023-05-14T22:54:25.484Z,12.50
2023-05-14T22:56:52.204Z,12.18
2023-05-14T22:59:22.035Z,13.07
2023-05-14T23:01:50.187Z,11.90
2023-05-14T23:04:16.949Z,12.80
2023-05-14T23:06:43.661Z,12.10
2023-05-14T23:09:10.386Z,13.35
2023-05-14T23:11:37.020Z,12.27
2023-05-14T23:14:03.723Z,13.57
2023-05-14T23:16:30.355Z,13.00
2023-05-14T23:18:57.314Z,11.90
2023-05-14T23:21:24.176Z,13.75
2023-05-14T23:23:50.845Z,12.63
2023-05-14T23:26:17.463Z,13.57
2023-05-14T23:28:44.108Z,13.43
2023-05-14T23:31:10.876Z,13.00
2023-05-14T23:33:39.737Z,12.73
2023-05-14T23:36:07.032Z,12.98
2023-05-14T23:38:33.646Z,11.88
2023-05-14T23:41:00.428Z,12.73
2023-05-14T23:43:27.178Z,12.13
2023-05-14T23:45:53.902Z,14.50
2023-05-14T23:48:20.671Z,12.77
2023-05-14T23:50:47.779Z,12.15
2023-05-14T23:53:14.552Z,12.90
2023-05-14T23:55:41.288Z,12.73
2023-05-14T23:58:07.910Z,13.70
